Time,TemperatureF,DewpointF,PressureIn,WindDirection,WindDirectionDegrees,WindSpeedMPH,WindSpeedGustMPH,Humidity,HourlyPrecipIn,Conditions,Clouds,dailyrainin,SolarRadiationWatts/m^2,SoftwareType,DateUTC
2013-03-04 00:00:00,45.8,35.5,29.63,ESE,112,3.5,3.5,67,0.00,SCT,,0.00,0.0,WeatherDisplay:10.37,2013-03-04 06:00:00,
2013-03-04 00:05:00,45.8,35.5,29.64,SE,132,2.0,2.0,67,0.00,SCT,,0.00,0.0,WeatherDisplay:10.37,2013-03-04 06:05:00,
2013-03-04 00:10:00,45.6,35.3,29.64,SE,143,4.6,4.6,67,0.00,SCT,,0.00,0.0,WeatherDisplay:10.37,2013-03-04 06:10:00,
2013-03-04 00:15:00,45.6,35.3,29.64,ESE,115,2.3,2.3,67,0.00,BKN,,0.00,0.0,WeatherDisplay:10.37,2013-03-04 06:15:00,
2013-03-04 00:20:00,45.5,35.2,29.63,ESE,117,2.3,2.3,67,0.00,BKN,,0.00,0.0,WeatherDisplay:10.37,2013-03-04 06:20:00,
2013-03-04 00:25:00,45.4,35.5,29.63,ESE,117,2.3,2.3,68,0.00,BKN,,0.00,0.0,WeatherDisplay:10.37,2013-03-04 06:25:00,
2013-03-04 00:30:00,45.3,35.4,29.62,ESE,115,3.5,3.5,68,0.00,BKN,,0.00,0.0,WeatherDisplay:10.37,2013-03-04 06:30:00,
2013-03-04 00:35:00,45.2,35.3,29.62,ESE,109,6.9,6.9,68,0.00,BKN,,0.00,0.0,WeatherDisplay:10.37,2013-03-04 06:35:00,
2013-03-04 00:40:00,45.1,35.2,29.62,SE,126,3.5,3.5,68,0.00,BKN,,0.00,0.0,WeatherDisplay:10.37,2013-03-04 06:40:00,
2013-03-04 00:45:00,45.2,35.3,29.61,ESE,121,8.1,8.1,68,0.00,BKN,,0.00,0.0,WeatherDisplay:10.37,2013-03-04 06:45:00,
2013-03-04 00:50:00,45.3,35.4,29.62,SE,126,3.5,3.5,68,0.00,BKN,,0.00,0.0,WeatherDisplay:10.37,2013-03-04 06:50:00,
2013-03-04 00:55:00,45.3,35.4,29.62,SE,130,4.6,4.6,68,0.00,BKN,,0.00,0.0,WeatherDisplay:10.37,2013-03-04 06:55:00,
2013-03-04 01:00:00,45.4,35.5,29.62,East,96,3.5,3.5,68,0.00,BKN,,0.00,0.0,WeatherDisplay:10.37,2013-03-04 07:00:00,
2013-03-04 01:05:00,45.4,35.5,29.62,SE,136,1.1,1.1,68,0.00,BKN,,0.00,0.0,WeatherDisplay:10.37,2013-03-04 07:05:00,
2013-03-04 01:10:00,45.5,35.5,29.62,East,84,6.0,6.0,68,0.00,BKN,,0.00,0.0,WeatherDisplay:10.37,2013-03-04 07:10:00,
2013-03-04 01:15:00,45.7,35.7,29.62,ESE,109,2.3,2.3,68,0.00,BKN,,0.00,0.0,WeatherDisplay:10.37,2013-03-04 07:15:00,
2013-03-04 01:20:00,45.9,35.9,29.62,ESE,103,3.5,3.5,68,0.00,BKN,,0.00,0.0,WeatherDisplay:10.37,2013-03-04 07:20:00,
2013-03-04 01:25:00,46.0,35.7,29.62,ESE,103,2.3,2.3,67,0.00,BKN,,0.00,0.0,WeatherDisplay:10.37,2013-03-04 07:25:00,
2013-03-04 01:30:00,46.0,35.7,29.61,ESE,109,3.5,3.5,67,0.00,BKN,,0.00,0.0,WeatherDisplay:10.37,2013-03-04 07:30:00,
2013-03-04 01:35:00,46.1,35.7,29.61,ESE,118,3.5,3.5,67,0.00,BKN,,0.00,0.0,WeatherDisplay:10.37,2013-03-04 07:35:00,
2013-03-04 01:40:00,46.2,35.8,29.61,ESE,112,4.6,4.6,67,0.00,BKN,,0.00,0.0,WeatherDisplay:10.37,2013-03-04 07:40:00,
2013-03-04 01:45:00,46.2,35.8,29.61,East,88,4.6,4.6,67,0.00,BKN,,0.00,0.0,WeatherDisplay:10.37,2013-03-04 07:45:00,
2013-03-04 01:50:00,46.3,35.9,29.61,ENE,78,3.5,3.5,67,0.00,BKN,,0.00,0.0,WeatherDisplay:10.37,2013-03-04 07:50:00,
2013-03-04 01:55:00,46.3,35.9,29.62,East,84,3.5,3.5,67,0.00,BKN,,0.00,0.0,WeatherDisplay:10.37,2013-03-04 07:55:00,
2013-03-04 02:00:00,46.3,35.9,29.62,East,95,3.5,3.5,67,0.00,BKN,,0.00,0.0,WeatherDisplay:10.37,2013-03-04 08:00:00,
2013-03-04 02:05:00,46.3,35.9,29.61,East,87,3.5,3.5,67,0.00,BKN,,0.00,0.0,WeatherDisplay:10.37,2013-03-04 08:05:00,
2013-03-04 02:10:00,46.1,35.7,29.61,East,87,1.1,0.0,67,0.00,BKN,,0.00,0.0,WeatherDisplay:10.37,2013-03-04 08:10:00,
2013-03-04 02:15:00,45.9,35.6,29.61,East,87,1.1,1.1,67,0.00,BKN,,0.00,0.0,WeatherDisplay:10.37,2013-03-04 08:15:00,
2013-03-04 02:20:00,45.5,35.5,29.61,ESE,103,3.5,3.5,68,0.00,BKN,,0.00,0.0,WeatherDisplay:10.37,2013-03-04 08:20:00,
2013-03-04 02:25:00,45.3,35.7,29.60,ESE,103,1.1,1.1,69,0.00,BKN,,0.00,0.0,WeatherDisplay:10.37,2013-03-04 08:25:00,
2013-03-04 02:30:00,45.1,35.5,29.60,ESE,105,2.3,2.3,69,0.00,BKN,,0.00,0.0,WeatherDisplay:10.37,2013-03-04 08:30:00,
2013-03-04 02:35:00,45.0,35.4,29.60,ESE,105,3.5,3.5,69,0.00,BKN,,0.00,0.0,WeatherDisplay:10.37,2013-03-04 08:35:00,
2013-03-04 02:40:00,44.7,35.5,29.60,East,88,3.5,3.5,70,0.00,BKN,,0.00,0.0,WeatherDisplay:10.37,2013-03-04 08:40:00,
2013-03-04 02:45:00,44.6,35.4,29.60,East,88,2.3,2.3,70,0.00,BKN,,0.00,0.0,WeatherDisplay:10.37,2013-03-04 08:45:00,
2013-03-04 02:50:00,44.4,35.2,29.59,East,88,2.3,2.3,70,0.00,BKN,,0.00,0.0,WeatherDisplay:10.37,2013-03-04 08:50:00,
2013-03-04 02:55:00,44.2,35.4,29.59,East,88,0.0,0.0,71,0.00,BKN,,0.00,0.0,WeatherDisplay:10.37,2013-03-04 08:55:00,
2013-03-04 03:00:00,44.0,35.2,29.59,East,88,2.3,2.3,71,0.00,BKN,,0.00,0.0,WeatherDisplay:10.37,2013-03-04 09:00:00,
2013-03-04 03:05:00,43.7,35.3,29.59,East,88,1.1,1.1,72,0.00,BKN,,0.00,0.0,WeatherDisplay:10.37,2013-03-04 09:05:00,
2013-03-04 03:10:00,43.5,35.1,29.58,East,88,2.3,2.3,72,0.00,BKN,,0.00,0.0,WeatherDisplay:10.37,2013-03-04 09:10:00,
2013-03-04 03:15:00,43.3,35.2,29.59,East,88,2.3,2.3,73,0.00,BKN,,0.00,0.0,WeatherDisplay:10.37,2013-03-04 09:15:00,
2013-03-04 03:20:00,43.0,34.9,29.58,East,88,2.3,2.3,73,0.00,BKN,,0.00,0.0,WeatherDisplay:10.37,2013-03-04 09:20:00,
2013-03-04 03:25:00,42.9,34.8,29.58,East,88,3.5,3.5,73,0.00,BKN,,0.00,0.0,WeatherDisplay:10.37,2013-03-04 09:25:00,
2013-03-04 03:30:00,42.8,35.1,29.58,East,88,1.1,1.1,74,0.00,BKN,,0.00,0.0,WeatherDisplay:10.37,2013-03-04 09:30:00,
2013-03-04 03:35:00,42.7,35.0,29.58,East,88,2.3,2.3,74,0.00,BKN,,0.00,0.0,WeatherDisplay:10.37,2013-03-04 09:35:00,
2013-03-04 03:40:00,42.5,34.8,29.58,East,88,2.3,2.3,74,0.00,BKN,,0.00,0.0,WeatherDisplay:10.37,2013-03-04 09:40:00,
2013-03-04 03:45:00,42.4,34.7,29.58,East,88,1.1,1.1,74,0.00,BKN,,0.00,0.0,WeatherDisplay:10.37,2013-03-04 09:45:00,
2013-03-04 03:50:00,42.2,34.8,29.59,East,88,2.3,2.3,75,0.00,BKN,,0.00,0.0,WeatherDisplay:10.37,2013-03-04 09:50:00,
2013-03-04 03:55:00,42.1,34.7,29.59,East,88,2.3,2.3,75,0.00,BKN,,0.00,0.0,WeatherDisplay:10.37,2013-03-04 09:55:00,
2013-03-04 04:00:00,41.9,34.6,29.59,NE,47,3.5,3.5,75,0.00,BKN,,0.00,0.0,WeatherDisplay:10.37,2013-03-04 10:00:00,
2013-03-04 04:05:00,41.6,34.3,29.58,NE,47,2.3,2.3,75,0.00,BKN,,0.00,0.0,WeatherDisplay:10.37,2013-03-04 10:05:00,
2013-03-04 04:10:00,41.2,34.2,29.58,NE,47,2.3,2.3,76,0.00,BKN,,0.00,0.0,WeatherDisplay:10.37,2013-03-04 10:10:00,
2013-03-04 04:15:00,40.8,34.1,29.58,NE,47,1.1,1.1,77,0.00,BKN,,0.00,0.0,WeatherDisplay:10.37,2013-03-04 10:15:00,
2013-03-04 04:20:00,40.4,33.8,29.58,NE,47,2.3,2.3,77,0.00,BKN,,0.00,0.0,WeatherDisplay:10.37,2013-03-04 10:20:00,
2013-03-04 04:25:00,40.1,33.8,29.58,NE,47,0.0,0.0,78,0.00,BKN,,0.00,0.0,WeatherDisplay:10.37,2013-03-04 10:25:00,
2013-03-04 04:30:00,39.8,33.8,29.58,NE,47,0.0,0.0,79,0.00,BKN,,0.00,0.0,WeatherDisplay:10.37,2013-03-04 10:30:00,
2013-03-04 04:35:00,39.4,33.7,29.58,NE,47,1.1,1.1,80,0.00,BKN,,0.00,0.0,WeatherDisplay:10.37,2013-03-04 10:35:00,
2013-03-04 04:40:00,39.1,33.5,29.58,NE,47,2.3,2.3,80,0.00,BKN,,0.00,0.0,WeatherDisplay:10.37,2013-03-04 10:40:00,
2013-03-04 04:45:00,38.8,33.5,29.58,NE,47,2.3,2.3,81,0.00,BKN,,0.00,0.0,WeatherDisplay:10.37,2013-03-04 10:45:00,
2013-03-04 04:50:00,38.6,33.3,29.58,NE,47,1.1,1.1,81,0.00,BKN,,0.00,0.0,WeatherDisplay:10.37,2013-03-04 10:50:00,
2013-03-04 04:55:00,38.3,33.0,29.58,NE,47,0.0,0.0,81,0.00,BKN,,0.00,0.0,WeatherDisplay:10.37,2013-03-04 10:55:00,
2013-03-04 05:00:00,38.0,32.7,29.58,NE,47,0.0,0.0,81,0.00,BKN,,0.00,0.0,WeatherDisplay:10.37,2013-03-04 11:00:00,
2013-03-04 05:05:00,37.8,32.8,29.58,NE,47,0.0,0.0,82,0.00,BKN,,0.00,0.0,WeatherDisplay:10.37,2013-03-04 11:05:00,
2013-03-04 05:10:00,37.5,32.8,29.58,NE,47,1.1,1.1,83,0.00,BKN,,0.00,0.0,WeatherDisplay:10.37,2013-03-04 11:10:00,
2013-03-04 05:15:00,37.3,32.6,29.59,NE,47,1.1,1.1,83,0.00,BKN,,0.00,0.0,WeatherDisplay:10.37,2013-03-04 11:15:00,
2013-03-04 05:20:00,37.0,32.6,29.59,NE,47,0.0,0.0,84,0.00,BKN,,0.00,0.0,WeatherDisplay:10.37,2013-03-04 11:20:00,
2013-03-04 05:25:00,36.8,32.4,29.60,NE,47,0.0,0.0,84,0.00,BKN,,0.00,0.0,WeatherDisplay:10.37,2013-03-04 11:25:00,
2013-03-04 05:30:00,36.5,32.4,29.61,NNW,348,2.0,2.0,85,0.00,BKN,,0.00,0.0,WeatherDisplay:10.37,2013-03-04 11:30:00,
2013-03-04 05:35:00,36.3,32.2,29.61,NNW,347,2.3,2.3,85,0.00,BKN,,0.00,0.0,WeatherDisplay:10.37,2013-03-04 11:35:00,
2013-03-04 05:40:00,36.3,32.5,29.61,NNW,347,2.3,2.3,86,0.00,BKN,,0.00,0.0,WeatherDisplay:10.37,2013-03-04 11:40:00,
2013-03-04 05:45:00,36.4,32.6,29.61,NNW,346,3.5,3.5,86,0.00,BKN,,0.00,0.0,WeatherDisplay:10.37,2013-03-04 11:45:00,
2013-03-04 05:50:00,36.5,33.0,29.61,NNW,346,3.5,3.5,87,0.00,BKN,,0.00,0.0,WeatherDisplay:10.37,2013-03-04 11:50:00,
2013-03-04 05:55:00,36.4,32.6,29.62,NW,319,3.5,3.5,86,0.00,BKN,,0.00,0.0,WeatherDisplay:10.37,2013-03-04 11:55:00,
2013-03-04 06:00:00,36.3,32.5,29.62,NW,321,3.5,3.5,86,0.00,BKN,,0.00,0.0,WeatherDisplay:10.37,2013-03-04 12:00:00,
2013-03-04 06:05:00,36.3,32.8,29.62,NW,320,2.3,2.3,87,0.00,BKN,,0.00,0.0,WeatherDisplay:10.37,2013-03-04 12:05:00,
2013-03-04 06:10:00,36.3,32.5,29.62,NW,321,2.3,2.3,86,0.00,BKN,,0.00,0.0,WeatherDisplay:10.37,2013-03-04 12:10:00,
2013-03-04 06:15:00,36.3,32.5,29.62,NW,323,4.6,4.6,86,0.00,BKN,,0.00,0.0,WeatherDisplay:10.37,2013-03-04 12:15:00,
2013-03-04 06:20:00,36.4,32.6,29.62,NNW,340,3.5,3.5,86,0.00,BKN,,0.00,0.0,WeatherDisplay:10.37,2013-03-04 12:20:00,
2013-03-04 06:25:00,36.6,32.8,29.62,NW,323,3.5,3.5,86,0.00,BKN,,0.00,0.0,WeatherDisplay:10.37,2013-03-04 12:25:00,
2013-03-04 06:30:00,36.7,32.6,29.63,NNW,331,3.5,3.5,85,0.00,BKN,,0.00,0.0,WeatherDisplay:10.37,2013-03-04 12:30:00,
2013-03-04 06:35:00,36.9,32.8,29.63,NNW,327,4.6,4.6,85,0.00,BKN,,0.00,0.0,WeatherDisplay:10.37,2013-03-04 12:35:00,
2013-03-04 06:40:00,37.1,32.7,29.63,NNW,338,4.6,4.6,84,0.00,BKN,,0.00,0.0,WeatherDisplay:10.37,2013-03-04 12:40:00,
2013-03-04 06:45:00,37.2,32.8,29.63,NNW,327,3.5,3.5,84,0.00,BKN,,0.00,0.0,WeatherDisplay:10.37,2013-03-04 12:45:00,
2013-03-04 06:50:00,37.2,32.8,29.63,NNW,347,3.5,3.5,84,0.00,BKN,,0.00,0.0,WeatherDisplay:10.37,2013-03-04 12:50:00,
2013-03-04 06:55:00,37.2,32.8,29.63,NNW,338,3.5,3.5,84,0.00,BKN,,0.00,0.0,WeatherDisplay:10.37,2013-03-04 12:55:00,
2013-03-04 07:00:00,37.1,32.7,29.63,North,5,2.3,2.3,84,0.00,BKN,,0.00,0.0,WeatherDisplay:10.37,2013-03-04 13:00:00,
2013-03-04 07:05:00,36.9,32.5,29.63,North,350,3.5,3.5,84,0.00,BKN,,0.00,7.0,WeatherDisplay:10.37,2013-03-04 13:05:00,
2013-03-04 07:10:00,36.8,32.4,29.63,NNW,340,3.5,3.5,84,0.00,BKN,,0.00,12.0,WeatherDisplay:10.37,2013-03-04 13:10:00,
2013-03-04 07:15:00,36.7,32.6,29.64,North,355,3.5,3.5,85,0.00,BKN,,0.00,14.0,WeatherDisplay:10.37,2013-03-04 13:15:00,
2013-03-04 07:20:00,36.7,32.6,29.64,NNW,327,3.5,3.5,85,0.00,BKN,,0.00,19.0,WeatherDisplay:10.37,2013-03-04 13:20:00,
2013-03-04 07:25:00,36.9,32.8,29.64,NNW,343,4.6,4.6,85,0.00,SCT,,0.00,23.0,WeatherDisplay:10.37,2013-03-04 13:25:00,
2013-03-04 07:30:00,37.0,32.6,29.64,NNW,338,3.5,3.6,84,0.00,SCT,,0.00,26.0,WeatherDisplay:10.37,2013-03-04 13:30:00,
2013-03-04 07:35:00,37.3,32.9,29.64,NNW,345,5.8,5.8,84,0.00,SCT,,0.00,30.0,WeatherDisplay:10.37,2013-03-04 13:35:00,
2013-03-04 07:40:00,37.5,32.8,29.64,North,360,3.5,3.5,83,0.00,SCT,,0.00,33.0,WeatherDisplay:10.37,2013-03-04 13:40:00,
2013-03-04 07:45:00,37.8,33.1,29.64,North,355,3.5,3.5,83,0.00,SCT,,0.00,37.0,WeatherDisplay:10.37,2013-03-04 13:45:00,
2013-03-04 07:50:00,38.0,33.3,29.64,North,11,3.5,3.5,83,0.00,SCT,,0.00,40.0,WeatherDisplay:10.37,2013-03-04 13:50:00,
2013-03-04 07:55:00,38.4,33.4,29.64,North,355,5.8,5.8,82,0.00,SCT,,0.00,40.0,WeatherDisplay:10.37,2013-03-04 13:55:00,
2013-03-04 08:00:00,38.8,33.5,29.64,North,9,1.1,1.1,81,0.00,SCT,,0.00,67.0,WeatherDisplay:10.37,2013-03-04 14:00:00,
2013-03-04 08:05:00,39.2,33.9,29.64,NNE,33,5.8,5.8,81,0.00,SCT,,0.00,58.0,WeatherDisplay:10.37,2013-03-04 14:05:00,
2013-03-04 08:10:00,39.7,34.0,29.65,NNE,16,5.8,5.8,80,0.00,SCT,,0.00,116.0,WeatherDisplay:10.37,2013-03-04 14:10:00,
2013-03-04 08:15:00,40.3,34.3,29.65,North,350,5.8,5.8,79,0.00,SCT,,0.00,113.0,WeatherDisplay:10.37,2013-03-04 14:15:00,
2013-03-04 08:20:00,40.6,34.0,29.65,NNW,346,7.0,7.0,77,0.00,SCT,,0.00,114.0,WeatherDisplay:10.37,2013-03-04 14:20:00,
2013-03-04 08:25:00,40.9,34.2,29.66,NE,37,5.8,5.8,77,0.00,SCT,,0.00,113.0,WeatherDisplay:10.37,2013-03-04 14:25:00,
2013-03-04 08:30:00,41.2,34.5,29.66,NNW,331,4.0,4.0,77,0.00,SCT,,0.00,125.0,WeatherDisplay:10.37,2013-03-04 14:30:00,
2013-03-04 08:35:00,41.3,34.3,29.66,NNE,32,3.5,3.5,76,0.00,SCT,,0.00,62.0,WeatherDisplay:10.37,2013-03-04 14:35:00,
2013-03-04 08:40:00,41.5,34.5,29.66,NNW,348,6.9,6.9,76,0.00,SCT,,0.00,54.0,WeatherDisplay:10.37,2013-03-04 14:40:00,
2013-03-04 08:45:00,41.6,34.3,29.66,NNW,329,4.6,4.6,75,0.00,SCT,,0.00,56.0,WeatherDisplay:10.37,2013-03-04 14:45:00,
2013-03-04 08:50:00,41.8,34.5,29.67,NNW,337,6.9,6.9,75,0.00,SCT,,0.00,188.0,WeatherDisplay:10.37,2013-03-04 14:50:00,
2013-03-04 08:55:00,42.1,34.7,29.67,NNE,20,4.6,4.6,75,0.00,SCT,,0.00,178.0,WeatherDisplay:10.37,2013-03-04 14:55:00,
2013-03-04 09:00:00,42.4,34.7,29.67,North,11,8.1,8.1,74,0.00,SCT,,0.00,69.0,WeatherDisplay:10.37,2013-03-04 15:00:00,
2013-03-04 09:05:00,42.8,34.7,29.67,NW,317,6.0,6.0,73,0.00,SCT,,0.00,69.0,WeatherDisplay:10.37,2013-03-04 15:05:00,
2013-03-04 09:10:00,43.2,35.1,29.67,NNW,342,5.8,5.8,73,0.00,SCT,,0.00,142.0,WeatherDisplay:10.37,2013-03-04 15:10:00,
2013-03-04 09:15:00,43.3,34.9,29.67,North,360,8.0,8.0,72,0.00,SCT,,0.00,236.0,WeatherDisplay:10.37,2013-03-04 15:15:00,
2013-03-04 09:20:00,43.5,35.1,29.67,NW,319,5.0,5.0,72,0.00,SCT,,0.00,77.0,WeatherDisplay:10.37,2013-03-04 15:20:00,
2013-03-04 09:25:00,43.9,35.1,29.67,NW,316,8.1,8.1,71,0.00,SCT,,0.00,200.0,WeatherDisplay:10.37,2013-03-04 15:25:00,
2013-03-04 09:30:00,44.3,35.5,29.67,NNE,19,6.9,6.9,71,0.00,SCT,,0.00,306.0,WeatherDisplay:10.37,2013-03-04 15:30:00,
2013-03-04 09:35:00,44.8,36.0,29.67,NNW,327,3.5,3.5,71,0.00,SCT,,0.00,258.0,WeatherDisplay:10.37,2013-03-04 15:35:00,
2013-03-04 09:40:00,45.4,36.2,29.67,NW,324,5.8,5.8,70,0.00,SCT,,0.00,387.0,WeatherDisplay:10.37,2013-03-04 15:40:00,
2013-03-04 09:45:00,45.6,36.0,29.67,NNW,327,4.6,4.6,69,0.00,SCT,,0.00,195.0,WeatherDisplay:10.37,2013-03-04 15:45:00,
2013-03-04 09:50:00,45.9,36.3,29.67,NNW,345,6.9,6.9,69,0.00,SCT,,0.00,413.0,WeatherDisplay:10.37,2013-03-04 15:50:00,
2013-03-04 09:55:00,46.0,36.0,29.67,NW,311,6.9,6.9,68,0.00,SCT,,0.00,390.0,WeatherDisplay:10.37,2013-03-04 15:55:00,
2013-03-04 10:00:00,46.1,36.1,29.68,NNW,332,9.2,9.2,68,0.00,SCT,,0.00,323.0,WeatherDisplay:10.37,2013-03-04 16:00:00,
2013-03-04 10:05:00,46.2,36.2,29.68,NNW,343,10.4,10.4,68,0.00,SCT,,0.00,338.0,WeatherDisplay:10.37,2013-03-04 16:05:00,
2013-03-04 10:10:00,46.3,36.3,29.68,NW,312,9.2,9.2,68,0.00,SCT,,0.00,341.0,WeatherDisplay:10.37,2013-03-04 16:10:00,
2013-03-04 10:15:00,46.4,36.0,29.68,NNW,329,8.1,8.1,67,0.00,SCT,,0.00,371.0,WeatherDisplay:10.37,2013-03-04 16:15:00,
2013-03-04 10:20:00,46.4,36.0,29.68,NNW,328,11.5,11.5,67,0.00,SCT,,0.00,311.0,WeatherDisplay:10.37,2013-03-04 16:20:00,
2013-03-04 10:25:00,46.5,36.1,29.68,North,355,12.7,12.7,67,0.00,SCT,,0.00,338.0,WeatherDisplay:10.37,2013-03-04 16:25:00,
2013-03-04 10:30:00,46.5,36.1,29.68,NNW,338,8.1,8.1,67,0.00,SCT,,0.00,454.0,WeatherDisplay:10.37,2013-03-04 16:30:00,
2013-03-04 10:35:00,46.9,36.5,29.69,North,5,13.8,13.8,67,0.00,SCT,,0.00,545.0,WeatherDisplay:10.37,2013-03-04 16:35:00,
2013-03-04 10:40:00,46.9,36.5,29.69,WNW,302,13.8,13.8,67,0.00,SCT,,0.00,580.0,WeatherDisplay:10.37,2013-03-04 16:40:00,
2013-03-04 10:45:00,46.6,36.2,29.69,NNW,327,18.4,18.4,67,0.00,SCT,,0.00,499.0,WeatherDisplay:10.37,2013-03-04 16:45:00,
2013-03-04 10:50:00,46.2,36.6,29.69,NNW,333,17.3,17.3,69,0.00,SCT,,0.00,364.0,WeatherDisplay:10.37,2013-03-04 16:50:00,
2013-03-04 10:55:00,46.0,36.4,29.69,NNW,336,19.6,19.6,69,0.00,SCT,,0.00,374.0,WeatherDisplay:10.37,2013-03-04 16:55:00,
2013-03-04 11:00:00,45.5,36.3,29.70,NNW,335,15.0,15.0,70,0.00,SCT,,0.00,371.0,WeatherDisplay:10.37,2013-03-04 17:00:00,
2013-03-04 11:05:00,45.3,36.4,29.70,North,350,15.0,15.0,71,0.00,SCT,,0.00,555.0,WeatherDisplay:10.37,2013-03-04 17:05:00,
2013-03-04 11:10:00,45.1,36.3,29.70,North,350,12.7,12.7,71,0.00,SCT,,0.00,642.0,WeatherDisplay:10.37,2013-03-04 17:10:00,
2013-03-04 11:15:00,45.2,36.4,29.71,NW,320,18.4,18.4,71,0.00,SCT,,0.00,652.0,WeatherDisplay:10.37,2013-03-04 17:15:00,
2013-03-04 11:20:00,45.0,36.5,29.70,NNE,28,16.1,16.1,72,0.00,SCT,,0.00,657.0,WeatherDisplay:10.37,2013-03-04 17:20:00,
2013-03-04 11:25:00,45.1,36.3,29.71,WNW,294,18.4,18.4,71,0.00,SCT,,0.00,675.0,WeatherDisplay:10.37,2013-03-04 17:25:00,
2013-03-04 11:30:00,44.6,36.1,29.71,NNW,344,17.3,17.3,72,0.00,SCT,,0.00,622.0,WeatherDisplay:10.37,2013-03-04 17:30:00,
2013-03-04 11:35:00,44.5,36.4,29.71,NNW,342,16.1,16.1,73,0.00,SCT,,0.00,638.0,WeatherDisplay:10.37,2013-03-04 17:35:00,
2013-03-04 11:40:00,44.7,36.6,29.71,NNE,26,23.0,23.0,73,0.00,SCT,,0.00,664.0,WeatherDisplay:10.37,2013-03-04 17:40:00,
2013-03-04 11:45:00,44.4,36.6,29.72,NNW,341,18.4,18.4,74,0.00,SCT,,0.00,679.0,WeatherDisplay:10.37,2013-03-04 17:45:00,
2013-03-04 11:50:00,44.5,36.7,29.72,NNE,24,17.3,17.3,74,0.00,SCT,,0.00,703.0,WeatherDisplay:10.37,2013-03-04 17:50:00,
2013-03-04 11:55:00,44.5,36.7,29.72,North,355,21.9,21.9,74,0.00,SCT,,0.00,721.0,WeatherDisplay:10.37,2013-03-04 17:55:00,
2013-03-04 12:00:00,44.5,36.7,29.72,NNW,342,15.0,15.0,74,0.00,SCT,,0.00,724.0,WeatherDisplay:10.37,2013-03-04 18:00:00,
2013-03-04 12:05:00,44.6,37.5,29.72,NNE,28,15.0,15.0,76,0.00,BKN,,0.00,745.0,WeatherDisplay:10.37,2013-03-04 18:05:00,
2013-03-04 12:10:00,45.1,37.6,29.72,NNE,24,18.4,18.4,75,0.00,BKN,,0.00,789.0,WeatherDisplay:10.37,2013-03-04 18:10:00,
2013-03-04 12:15:00,45.3,37.8,29.72,NNE,13,12.7,12.7,75,0.00,BKN,,0.00,819.0,WeatherDisplay:10.37,2013-03-04 18:15:00,
2013-03-04 12:20:00,45.5,38.0,29.72,NNE,17,18.0,18.0,75,0.00,BKN,,0.00,483.0,WeatherDisplay:10.37,2013-03-04 18:20:00,
2013-03-04 12:25:00,45.2,38.1,29.72,NNW,342,15.0,15.0,76,0.00,BKN,,0.00,461.0,WeatherDisplay:10.37,2013-03-04 18:25:00,
2013-03-04 12:29:00,45.1,38.0,29.72,WNW,285,17.3,17.3,76,0.00,BKN,,0.00,408.0,WeatherDisplay:10.37,2013-03-04 18:29:00,
2013-03-04 12:34:00,44.7,37.9,29.72,NNE,17,19.6,19.6,77,0.00,BKN,,0.00,448.0,WeatherDisplay:10.37,2013-03-04 18:34:00,
2013-03-04 12:39:00,44.4,38.0,29.72,North,11,16.1,16.1,78,0.00,BKN,,0.00,443.0,WeatherDisplay:10.37,2013-03-04 18:39:00,
2013-03-04 12:44:00,44.2,37.4,29.72,NNW,336,20.7,20.7,77,0.00,BKN,,0.00,410.0,WeatherDisplay:10.37,2013-03-04 18:44:00,
2013-03-04 12:49:00,43.8,37.4,29.72,NNW,339,16.1,16.1,78,0.00,BKN,,0.00,388.0,WeatherDisplay:10.37,2013-03-04 18:49:00,
2013-03-04 12:54:00,44.0,37.9,29.72,NNE,12,19.6,19.6,79,0.00,BKN,,0.00,497.0,WeatherDisplay:10.37,2013-03-04 18:54:00,
2013-03-04 12:59:00,44.1,38.0,29.71,NE,35,19.6,19.6,79,0.00,BKN,,0.00,394.0,WeatherDisplay:10.37,2013-03-04 18:59:00,
2013-03-04 13:04:00,44.4,38.3,29.71,North,360,15.0,15.0,79,0.00,BKN,,0.00,415.0,WeatherDisplay:10.37,2013-03-04 19:04:00,
2013-03-04 13:09:00,44.4,38.0,29.71,NNE,18,18.4,18.4,78,0.00,BKN,,0.00,376.0,WeatherDisplay:10.37,2013-03-04 19:09:00,
2013-03-04 13:14:00,44.6,38.2,29.71,NNW,348,17.3,17.3,78,0.00,BKN,,0.00,399.0,WeatherDisplay:10.37,2013-03-04 19:14:00,
2013-03-04 13:19:00,44.4,38.0,29.71,North,355,15.0,15.0,78,0.00,BKN,,0.00,350.0,WeatherDisplay:10.37,2013-03-04 19:19:00,
2013-03-04 13:24:00,44.3,38.2,29.71,NW,326,11.5,11.5,79,0.00,BKN,,0.00,406.0,WeatherDisplay:10.37,2013-03-04 19:24:00,
2013-03-04 13:29:00,44.6,38.5,29.71,NNE,24,15.0,15.0,79,0.00,BKN,,0.00,469.0,WeatherDisplay:10.37,2013-03-04 19:29:00,
2013-03-04 13:34:00,44.3,37.9,29.71,North,360,15.0,15.0,78,0.00,BKN,,0.00,466.0,WeatherDisplay:10.37,2013-03-04 19:34:00,
2013-03-04 13:39:00,44.3,37.9,29.71,NW,323,25.0,25.0,78,0.00,BKN,,0.00,383.0,WeatherDisplay:10.37,2013-03-04 19:39:00,
2013-03-04 13:44:00,44.2,37.8,29.71,North,355,19.6,19.6,78,0.00,BKN,,0.00,466.0,WeatherDisplay:10.37,2013-03-04 19:44:00,
2013-03-04 13:49:00,44.1,37.7,29.71,NW,321,23.0,23.0,78,0.00,BKN,,0.00,397.0,WeatherDisplay:10.37,2013-03-04 19:49:00,
2013-03-04 13:54:00,44.2,37.8,29.71,NNE,17,19.6,19.6,78,0.00,BKN,,0.00,392.0,WeatherDisplay:10.37,2013-03-04 19:54:00,
2013-03-04 13:59:00,44.2,37.8,29.71,NNW,335,19.6,19.6,78,0.00,BKN,,0.00,417.0,WeatherDisplay:10.37,2013-03-04 19:59:00,
2013-03-04 14:04:00,44.1,38.0,29.71,NNW,336,15.0,15.0,79,0.00,BKN,,0.00,348.0,WeatherDisplay:10.37,2013-03-04 20:04:00,
2013-03-04 14:09:00,44.6,38.2,29.71,North,360,17.3,17.3,78,0.00,BKN,,0.00,371.0,WeatherDisplay:10.37,2013-03-04 20:09:00,
2013-03-04 14:14:00,44.7,38.3,29.71,NNW,338,16.0,16.0,78,0.00,BKN,,0.00,410.0,WeatherDisplay:10.37,2013-03-04 20:14:00,
2013-03-04 14:19:00,44.3,37.9,29.71,NNE,20,19.6,19.6,78,0.00,BKN,,0.00,299.0,WeatherDisplay:10.37,2013-03-04 20:19:00,
2013-03-04 14:24:00,44.3,38.2,29.71,NW,309,11.5,11.8,79,0.00,BKN,,0.00,316.0,WeatherDisplay:10.37,2013-03-04 20:24:00,
2013-03-04 14:29:00,44.2,37.8,29.71,WNW,302,19.6,19.6,78,0.00,BKN,,0.00,380.0,WeatherDisplay:10.37,2013-03-04 20:29:00,
2013-03-04 14:34:00,44.3,38.2,29.71,NNW,340,16.1,16.1,79,0.00,BKN,,0.00,366.0,WeatherDisplay:10.37,2013-03-04 20:34:00,
2013-03-04 14:39:00,44.5,38.1,29.72,NNW,344,12.7,12.7,78,0.00,BKN,,0.00,306.0,WeatherDisplay:10.37,2013-03-04 20:39:00,
2013-03-04 14:44:00,44.6,38.2,29.72,North,349,17.0,17.0,78,0.00,BKN,,0.00,575.0,WeatherDisplay:10.37,2013-03-04 20:44:00,
2013-03-04 14:49:00,45.1,38.6,29.72,NNW,327,13.8,13.8,78,0.00,BKN,,0.00,680.0,WeatherDisplay:10.37,2013-03-04 20:49:00,
2013-03-04 14:54:00,45.3,38.5,29.72,NNW,333,17.3,17.3,77,0.00,BKN,,0.00,680.0,WeatherDisplay:10.37,2013-03-04 20:54:00,
2013-03-04 14:59:00,45.3,38.2,29.73,North,360,16.1,16.1,76,0.00,SCT,,0.00,520.0,WeatherDisplay:10.37,2013-03-04 20:59:00,
2013-03-04 15:04:00,45.3,38.2,29.73,NW,309,17.3,17.3,76,0.00,SCT,,0.00,352.0,WeatherDisplay:10.37,2013-03-04 21:04:00,
2013-03-04 15:09:00,45.2,38.1,29.73,NNW,327,15.0,15.0,76,0.00,SCT,,0.00,264.0,WeatherDisplay:10.37,2013-03-04 21:09:00,
2013-03-04 15:14:00,45.2,38.1,29.74,NW,326,16.1,16.1,76,0.00,SCT,,0.00,308.0,WeatherDisplay:10.37,2013-03-04 21:14:00,
2013-03-04 15:19:00,45.2,38.1,29.74,NNW,348,17.3,17.3,76,0.00,SCT,,0.00,534.0,WeatherDisplay:10.37,2013-03-04 21:19:00,
2013-03-04 15:24:00,45.4,38.6,29.74,NE,44,13.8,13.8,77,0.00,SCT,,0.00,320.0,WeatherDisplay:10.37,2013-03-04 21:24:00,
2013-03-04 15:29:00,45.4,38.3,29.74,North,360,12.7,12.7,76,0.00,SCT,,0.00,265.0,WeatherDisplay:10.37,2013-03-04 21:29:00,
2013-03-04 15:34:00,45.4,38.6,29.74,North,5,10.4,10.4,77,0.00,SCT,,0.00,385.0,WeatherDisplay:10.37,2013-03-04 21:34:00,
2013-03-04 15:39:00,45.5,38.4,29.74,North,10,17.3,17.3,76,0.00,SCT,,0.00,489.0,WeatherDisplay:10.37,2013-03-04 21:39:00,
2013-03-04 15:44:00,45.5,38.4,29.74,NW,323,17.3,17.3,76,0.00,SCT,,0.00,369.0,WeatherDisplay:10.37,2013-03-04 21:44:00,
2013-03-04 15:49:00,45.2,38.1,29.75,North,350,18.4,18.4,76,0.00,SCT,,0.00,251.0,WeatherDisplay:10.37,2013-03-04 21:49:00,
2013-03-04 15:54:00,45.0,38.2,29.75,North,355,15.0,15.0,77,0.00,SCT,,0.00,211.0,WeatherDisplay:10.37,2013-03-04 21:54:00,
2013-03-04 15:59:00,44.8,38.4,29.75,NNE,15,14.0,14.0,78,0.00,SCT,,0.00,181.0,WeatherDisplay:10.37,2013-03-04 21:59:00,
2013-03-04 16:04:00,44.6,38.2,29.75,NNW,336,9.2,9.2,78,0.00,SCT,,0.00,179.0,WeatherDisplay:10.37,2013-03-04 22:04:00,
2013-03-04 16:09:00,44.7,38.3,29.76,NW,321,13.8,13.8,78,0.00,BKN,,0.00,171.0,WeatherDisplay:10.37,2013-03-04 22:09:00,
2013-03-04 16:14:00,44.7,38.3,29.76,NE,52,10.4,10.4,78,0.00,BKN,,0.00,162.0,WeatherDisplay:10.37,2013-03-04 22:14:00,
2013-03-04 16:19:00,44.7,38.6,29.77,NNW,342,11.5,11.5,79,0.00,BKN,,0.00,142.0,WeatherDisplay:10.37,2013-03-04 22:19:00,
2013-03-04 16:24:00,44.8,38.7,29.77,NNW,336,13.8,13.8,79,0.00,BKN,,0.00,193.0,WeatherDisplay:10.37,2013-03-04 22:24:00,
2013-03-04 16:29:00,44.8,38.4,29.77,NNW,331,13.8,13.8,78,0.00,BKN,,0.00,183.0,WeatherDisplay:10.37,2013-03-04 22:29:00,
2013-03-04 16:34:00,44.7,38.3,29.78,North,5,10.4,10.4,78,0.00,BKN,,0.00,167.0,WeatherDisplay:10.37,2013-03-04 22:34:00,
2013-03-04 16:39:00,44.7,38.3,29.78,North,355,9.2,9.2,78,0.00,BKN,,0.00,156.0,WeatherDisplay:10.37,2013-03-04 22:39:00,
2013-03-04 16:44:00,44.7,38.3,29.78,WNW,302,11.5,11.5,78,0.00,BKN,,0.00,142.0,WeatherDisplay:10.37,2013-03-04 22:44:00,
2013-03-04 16:49:00,44.6,38.5,29.79,NNW,341,10.4,10.4,79,0.00,BKN,,0.00,128.0,WeatherDisplay:10.37,2013-03-04 22:49:00,
2013-03-04 16:54:00,44.6,38.2,29.79,North,350,16.0,16.0,78,0.00,BKN,,0.00,116.0,WeatherDisplay:10.37,2013-03-04 22:54:00,
2013-03-04 16:59:00,44.4,38.0,29.80,NNW,337,14.0,14.0,78,0.00,BKN,,0.00,104.0,WeatherDisplay:10.37,2013-03-04 22:59:00,
2013-03-04 17:04:00,44.3,38.2,29.81,NW,306,17.0,17.0,79,0.00,BKN,,0.00,86.0,WeatherDisplay:10.37,2013-03-04 23:04:00,
2013-03-04 17:09:00,44.3,38.2,29.81,NNW,346,16.1,16.1,79,0.00,BKN,,0.00,69.0,WeatherDisplay:10.37,2013-03-04 23:09:00,
2013-03-04 17:14:00,44.2,38.1,29.82,NNW,344,12.0,12.0,79,0.00,BKN,,0.00,40.0,WeatherDisplay:10.37,2013-03-04 23:14:00,
2013-03-04 17:19:00,44.1,38.0,29.82,NNW,336,12.0,12.0,79,0.00,OVC,,0.00,37.0,WeatherDisplay:10.37,2013-03-04 23:19:00,
2013-03-04 17:24:00,43.7,37.9,29.83,NNW,342,17.3,17.3,80,0.00,OVC,,0.00,30.0,WeatherDisplay:10.37,2013-03-04 23:24:00,
2013-03-04 17:29:00,43.3,37.5,29.83,NW,313,17.3,17.3,80,0.00,OVC,,0.00,21.0,WeatherDisplay:10.37,2013-03-04 23:29:00,
2013-03-04 17:34:00,43.0,37.6,29.83,NW,325,13.8,13.8,81,0.00,OVC,,0.00,18.0,WeatherDisplay:10.37,2013-03-04 23:34:00,
2013-03-04 17:39:00,42.9,37.5,29.84,WNW,298,10.4,10.4,81,0.00,OVC,,0.00,18.0,WeatherDisplay:10.37,2013-03-04 23:39:00,
2013-03-04 17:44:00,42.7,37.3,29.84,NW,316,17.3,17.3,81,0.00,OVC,,0.00,19.0,WeatherDisplay:10.37,2013-03-04 23:44:00,
2013-03-04 17:49:00,42.5,37.1,29.84,NW,325,12.7,12.7,81,0.00,OVC,,0.00,16.0,WeatherDisplay:10.37,2013-03-04 23:49:00,
2013-03-04 17:54:00,42.4,37.0,29.85,WNW,301,11.5,11.5,81,0.00,OVC,,0.00,11.0,WeatherDisplay:10.37,2013-03-04 23:54:00,
2013-03-04 17:59:00,42.3,36.9,29.85,WNW,300,11.5,11.5,81,0.00,OVC,,0.00,11.0,WeatherDisplay:10.37,2013-03-04 23:59:00,
2013-03-04 18:04:00,42.2,36.8,29.86,NW,325,12.7,12.7,81,0.00,OVC,,0.00,9.0,WeatherDisplay:10.37,2013-03-05 00:04:00,
2013-03-04 18:09:00,42.1,37.0,29.86,NNW,329,11.5,11.5,82,0.00,OVC,,0.00,7.0,WeatherDisplay:10.37,2013-03-05 00:09:00,
2013-03-04 18:14:00,42.0,36.9,29.87,NNW,334,13.8,13.8,82,0.00,OVC,,0.00,5.0,WeatherDisplay:10.37,2013-03-05 00:14:00,
2013-03-04 18:19:00,41.9,36.8,29.87,NW,319,12.7,12.7,82,0.00,OVC,,0.00,0.0,WeatherDisplay:10.37,2013-03-05 00:19:00,
2013-03-04 18:24:00,41.8,36.7,29.87,NNW,344,11.5,11.5,82,0.00,OVC,,0.00,0.0,WeatherDisplay:10.37,2013-03-05 00:24:00,
2013-03-04 18:29:00,41.7,36.6,29.88,NW,322,10.0,10.0,82,0.00,OVC,,0.00,0.0,WeatherDisplay:10.37,2013-03-05 00:29:00,
2013-03-04 18:34:00,41.7,36.6,29.88,NNW,340,17.3,17.3,82,0.00,OVC,,0.00,0.0,WeatherDisplay:10.37,2013-03-05 00:34:00,
2013-03-04 18:39:00,41.8,36.7,29.89,NW,314,12.7,12.7,82,0.00,OVC,,0.00,0.0,WeatherDisplay:10.37,2013-03-05 00:39:00,
2013-03-04 18:44:00,41.7,36.6,29.90,North,360,17.0,17.0,82,0.00,OVC,,0.00,0.0,WeatherDisplay:10.37,2013-03-05 00:44:00,
2013-03-04 18:49:00,41.7,36.3,29.89,NNW,348,23.0,23.0,81,0.00,OVC,,0.00,0.0,WeatherDisplay:10.37,2013-03-05 00:49:00,
2013-03-04 18:54:00,41.7,36.3,29.89,NNW,344,19.6,19.6,81,0.00,OVC,,0.00,0.0,WeatherDisplay:10.37,2013-03-05 00:54:00,
2013-03-04 18:59:00,41.8,36.1,29.90,NNW,336,21.9,21.9,80,0.00,OVC,,0.00,0.0,WeatherDisplay:10.37,2013-03-05 00:59:00,
2013-03-04 19:04:00,41.7,36.0,29.90,NNW,338,19.6,19.6,80,0.00,OVC,,0.00,0.0,WeatherDisplay:10.37,2013-03-05 01:04:00,
2013-03-04 19:09:00,41.5,35.8,29.91,NNE,13,18.4,18.4,80,0.00,-RA,,0.00,0.0,WeatherDisplay:10.37,2013-03-05 01:09:00,
2013-03-04 19:14:00,41.5,36.1,29.91,North,350,20.7,20.7,81,0.00,-RA,,0.00,0.0,WeatherDisplay:10.37,2013-03-05 01:14:00,
2013-03-04 19:19:00,41.4,35.7,29.91,North,355,17.3,17.3,80,0.00,-RA,,0.00,0.0,WeatherDisplay:10.37,2013-03-05 01:19:00,
2013-03-04 19:24:00,41.3,35.6,29.91,NNW,346,16.0,16.0,80,0.00,-RA,,0.00,0.0,WeatherDisplay:10.37,2013-03-05 01:24:00,
2013-03-04 19:29:00,41.3,35.6,29.92,NNE,17,19.6,19.6,80,0.00,-RA,,0.00,0.0,WeatherDisplay:10.37,2013-03-05 01:29:00,
2013-03-04 19:34:00,41.3,35.9,29.92,NNW,327,18.4,18.4,81,0.00,-RA,,0.00,0.0,WeatherDisplay:10.37,2013-03-05 01:34:00,
2013-03-04 19:39:00,41.3,35.9,29.93,NNE,19,19.6,19.6,81,0.00,-RA,,0.00,0.0,WeatherDisplay:10.37,2013-03-05 01:39:00,
2013-03-04 19:44:00,41.2,35.8,29.93,NNW,346,19.6,19.6,81,0.00,-RA,,0.00,0.0,WeatherDisplay:10.37,2013-03-05 01:44:00,
2013-03-04 19:49:00,41.1,36.0,29.94,NNW,329,16.1,16.1,82,0.00,-RA,,0.00,0.0,WeatherDisplay:10.37,2013-03-05 01:49:00,
2013-03-04 19:54:00,40.9,35.8,29.95,NNW,331,19.6,19.6,82,0.00,-RA,,0.00,0.0,WeatherDisplay:10.37,2013-03-05 01:54:00,
2013-03-04 19:59:00,40.8,35.7,29.94,NW,313,20.7,20.7,82,0.00,-RA,,0.00,0.0,WeatherDisplay:10.37,2013-03-05 01:59:00,
2013-03-04 20:04:00,40.8,35.4,29.94,North,5,25.3,25.3,81,0.00,-RA,,0.00,0.0,WeatherDisplay:10.37,2013-03-05 02:04:00,
2013-03-04 20:09:00,40.9,35.2,29.95,NW,316,19.6,19.6,80,0.00,-RA,,0.00,0.0,WeatherDisplay:10.37,2013-03-05 02:09:00,
2013-03-04 20:14:00,41.0,35.0,29.96,North,10,26.5,26.5,79,0.00,-RA,,0.00,0.0,WeatherDisplay:10.37,2013-03-05 02:14:00,
2013-03-04 20:19:00,41.0,35.0,29.97,NNW,335,25.3,25.3,79,0.00,-RA,,0.00,0.0,WeatherDisplay:10.37,2013-03-05 02:19:00,
2013-03-04 20:24:00,41.0,35.0,29.96,North,360,23.0,23.0,79,0.00,-RA,,0.00,0.0,WeatherDisplay:10.37,2013-03-05 02:24:00,
2013-03-04 20:29:00,40.8,35.1,29.96,NW,313,16.1,16.1,80,0.00,-RA,,0.00,0.0,WeatherDisplay:10.37,2013-03-05 02:29:00,
2013-03-04 20:34:00,40.7,34.7,29.99,NW,318,20.7,20.7,79,0.00,-RA,,0.00,0.0,WeatherDisplay:10.37,2013-03-05 02:34:00,
2013-03-04 20:39:00,40.7,34.7,30.00,North,355,16.1,16.1,79,0.00,-RA,,0.00,0.0,WeatherDisplay:10.37,2013-03-05 02:39:00,
2013-03-04 20:44:00,40.7,34.7,30.00,NNW,342,13.8,13.8,79,0.00,-RA,,0.00,0.0,WeatherDisplay:10.37,2013-03-05 02:44:00,
2013-03-04 20:45:00,40.6,34.6,30.00,NNW,338,8.0,15.0,79,0.01,CLR,,0.01,0.0,WeatherDisplay:10.37,2013-03-05 02:45:00,
2013-03-04 20:49:00,40.7,34.7,30.00,NNW,342,13.8,13.8,79,0.00,-RA,,0.00,0.0,WeatherDisplay:10.37,2013-03-05 02:49:00,
2013-03-04 20:55:00,40.6,34.6,30.01,NNW,348,8.0,18.0,79,0.00,CLR,,0.01,0.0,WeatherDisplay:10.37,2013-03-05 02:55:00,
2013-03-04 21:00:00,40.6,34.6,30.02,NNW,348,10.0,19.0,79,0.00,CLR,,0.01,0.0,WeatherDisplay:10.37,2013-03-05 03:00:00,
2013-03-04 21:02:00,40.7,34.7,30.00,NNW,342,13.8,13.8,79,0.00,-RA,,0.00,0.0,WeatherDisplay:10.37,2013-03-05 03:02:00,
2013-03-04 21:05:00,40.5,34.8,30.03,NNW,338,12.0,27.0,80,0.00,CLR,,0.01,0.0,WeatherDisplay:10.37,2013-03-05 03:05:00,
2013-03-04 21:10:00,40.4,35.0,30.04,NNW,338,12.0,19.0,81,0.00,CLR,,0.01,0.0,WeatherDisplay:10.37,2013-03-05 03:10:00,
2013-03-04 21:15:00,40.1,35.4,30.04,NNW,338,9.0,15.0,83,0.00,CLR,,0.01,0.0,WeatherDisplay:10.37,2013-03-05 03:15:00,
2013-03-04 21:20:00,39.9,35.5,30.05,NNW,338,10.0,17.0,84,0.00,CLR,,0.01,0.0,WeatherDisplay:10.37,2013-03-05 03:20:00,
2013-03-04 21:25:00,39.9,35.5,30.05,NNW,338,10.0,17.0,84,0.00,CLR,,0.01,0.0,WeatherDisplay:10.37,2013-03-05 03:25:00,
2013-03-04 21:30:00,39.8,35.7,30.06,NNW,338,8.0,15.0,85,0.00,CLR,,0.01,0.0,WeatherDisplay:10.37,2013-03-05 03:30:00,
2013-03-04 21:40:00,39.5,36.0,30.06,NNW,348,9.0,19.0,87,0.00,CLR,,0.00,0.0,WeatherDisplay:10.37,2013-03-05 03:40:00,
2013-03-04 21:45:00,39.5,36.0,30.06,NNW,338,9.0,19.0,87,0.00,CLR,,0.01,0.0,WeatherDisplay:10.37,2013-03-05 03:45:00,
2013-03-04 21:50:00,39.3,36.0,30.07,NNW,345,9.0,18.0,88,0.00,CLR,,0.00,0.0,WeatherDisplay:10.37,2013-03-05 03:50:00,
2013-03-04 21:57:00,38.7,35.7,30.07,North,9,21.9,21.9,89,0.01,,,0.02,0.0,WeatherDisplay:10.37,2013-03-05 03:57:00,
2013-03-04 22:02:00,38.3,35.6,30.07,NW,319,19.6,19.6,90,0.01,,,0.02,0.0,WeatherDisplay:10.37,2013-03-05 04:02:00,
2013-03-04 22:07:00,38.1,35.7,30.08,NNW,339,11.5,11.5,91,0.02,RA,,0.03,0.0,WeatherDisplay:10.37,2013-03-05 04:07:00,
2013-03-04 22:13:00,38.0,35.6,30.08,NW,322,17.3,17.3,91,0.03,RA,,0.04,0.0,WeatherDisplay:10.37,2013-03-05 04:13:00,
2013-03-04 22:18:00,37.9,35.5,30.08,North,10,12.7,12.7,91,0.03,,,0.04,0.0,WeatherDisplay:10.37,2013-03-05 04:18:00,
2013-03-04 22:23:00,37.8,35.4,30.08,NNW,338,20.0,20.0,91,0.03,,,0.04,0.0,WeatherDisplay:10.37,2013-03-05 04:23:00,
2013-03-04 22:28:00,37.8,35.4,30.07,NNE,18,23.0,23.0,91,0.03,,,0.04,0.0,WeatherDisplay:10.37,2013-03-05 04:28:00,
2013-03-04 22:33:00,37.7,35.3,30.07,North,11,15.0,15.0,91,0.03,CLR,,0.04,0.0,WeatherDisplay:10.37,2013-03-05 04:33:00,
2013-03-04 22:38:00,37.7,35.3,30.07,North,355,15.0,15.0,91,0.03,CLR,,0.04,0.0,WeatherDisplay:10.37,2013-03-05 04:38:00,
2013-03-04 22:43:00,37.7,35.3,30.07,NW,319,16.1,16.1,91,0.03,CLR,,0.04,0.0,WeatherDisplay:10.37,2013-03-05 04:43:00,
2013-03-04 22:48:00,37.8,35.4,30.07,NNE,26,13.8,13.8,91,0.03,CLR,,0.04,0.0,WeatherDisplay:10.37,2013-03-05 04:48:00,
2013-03-04 22:53:00,37.9,35.5,30.07,NW,319,17.3,17.3,91,0.02,,,0.04,0.0,WeatherDisplay:10.37,2013-03-05 04:53:00,
2013-03-04 22:58:00,37.8,35.4,30.07,NNW,346,13.8,13.8,91,0.02,CLR,,0.04,0.0,WeatherDisplay:10.37,2013-03-05 04:58:00,
2013-03-04 23:00:00,37.8,35.4,30.07,North,360,15.0,15.0,91,0.02,CLR,,0.04,0.0,WeatherDisplay:10.37,2013-03-05 05:00:00,
2013-03-04 23:05:00,37.8,35.4,30.08,NW,313,10.4,10.4,91,0.01,CLR,,0.04,0.0,WeatherDisplay:10.37,2013-03-05 05:05:00,
2013-03-04 23:10:00,37.8,35.4,30.08,NNW,344,11.5,11.5,91,0.00,CLR,,0.04,0.0,WeatherDisplay:10.37,2013-03-05 05:10:00,
2013-03-04 23:15:00,37.7,35.3,30.08,NW,315,12.0,12.0,91,0.00,CLR,,0.04,0.0,WeatherDisplay:10.37,2013-03-05 05:15:00,
2013-03-04 23:20:00,37.7,35.3,30.09,NW,305,12.7,12.7,91,0.00,CLR,,0.04,0.0,WeatherDisplay:10.37,2013-03-05 05:20:00,
2013-03-04 23:25:00,37.7,35.3,30.08,NW,304,7.0,7.0,91,0.00,CLR,,0.04,0.0,WeatherDisplay:10.37,2013-03-05 05:25:00,
2013-03-04 23:30:00,37.6,35.2,30.08,NNW,340,10.0,10.0,91,0.00,CLR,,0.04,0.0,WeatherDisplay:10.37,2013-03-05 05:30:00,
2013-03-04 23:35:00,37.6,35.2,30.09,NW,321,5.8,5.8,91,0.00,CLR,,0.04,0.0,WeatherDisplay:10.37,2013-03-05 05:35:00,
2013-03-04 23:40:00,37.5,35.1,30.09,NW,312,11.5,11.5,91,0.00,CLR,,0.04,0.0,WeatherDisplay:10.37,2013-03-05 05:40:00,
2013-03-04 23:45:00,37.4,35.0,30.09,NW,313,7.0,7.0,91,0.00,CLR,,0.04,0.0,WeatherDisplay:10.37,2013-03-05 05:45:00,
2013-03-04 23:50:00,37.3,34.9,30.10,North,355,11.5,11.5,91,0.00,CLR,,0.04,0.0,WeatherDisplay:10.37,2013-03-05 05:50:00,
2013-03-04 23:55:00,37.2,35.1,30.11,WNW,298,13.8,13.8,92,0.00,CLR,,0.04,0.0,WeatherDisplay:10.37,2013-03-05 05:55:00,